| time (UTC) | temp F | wind direction | speed MPH | gust MPH | rain 1hr in | rain 24hr in | rain mn in | humidity % | barometer mb |
| 20260906233145 | 54 | 155 | 1.0 | 1.0 | 0.00 | 0.04 | 0.04 | 10 | 1016.4 |
| 20260906232640 | 54 | 151 | 1.0 | 2.0 | 0.00 | 0.04 | 0.04 | 10 | 1016.6 |
| 20260906232135 | 55 | 156 | 3.0 | 5.0 | 0.00 | 0.04 | 0.04 | 10 | 1016.7 |
| 20260906231630 | 54 | 166 | 1.0 | 2.0 | 0.00 | 0.04 | 0.04 | 10 | 1016.7 |
| 20260906231125 | 54 | 174 | 3.0 | 3.0 | 0.00 | 0.04 | 0.04 | 10 | 1016.7 |
| 20260906230624 | 55 | 171 | 1.0 | 2.0 | 0.00 | 0.04 | 0.04 | 10 | 1016.7 |
| 20260906230118 | 55 | 178 | 1.0 | 1.0 | 0.00 | 0.04 | 0.04 | 10 | 1016.6 |
| 20260906225612 | 54 | 162 | 2.0 | 2.0 | 0.00 | 0.04 | 0.04 | 10 | 1016.8 |
| 20260906225108 | 54 | 159 | 2.0 | 2.0 | 0.00 | 0.04 | 0.04 | 10 | 1016.8 |
| 20260906224603 | 54 | 152 | 1.0 | 1.0 | 0.00 | 0.04 | 0.04 | 10 | 1016.6 |
| 20260906224100 | 53 | 153 | 1.0 | 1.0 | 0.00 | 0.04 | 0.04 | 10 | 1016.7 |
| 20260906223556 | 53 | 136 | 2.0 | 2.0 | 0.00 | 0.04 | 0.04 | 10 | 1016.6 |
| 20260906223055 | 53 | 159 | 0.0 | 0.0 | 0.00 | 0.04 | 0.04 | 10 | 1016.7 |
| 20260906222554 | 52 | 116 | 3.0 | 3.0 | 0.00 | 0.04 | 0.04 | 10 | 1016.9 |
| 20260906222052 | 52 | 160 | 0.0 | 0.0 | 0.00 | 0.04 | 0.04 | 10 | 1016.8 |
| 20260906221550 | 52 | 144 | 2.0 | 2.0 | 0.00 | 0.04 | 0.04 | 10 | 1017.1 |
| 20260906221046 | 52 | 137 | 1.0 | 1.0 | 0.00 | 0.04 | 0.04 | 10 | 1017.0 |
| 20260906220541 | 52 | 147 | 2.0 | 2.0 | 0.00 | 0.04 | 0.04 | 10 | 1017.2 |
| 20260906220036 | 52 | 148 | 1.0 | 2.0 | 0.00 | 0.04 | 0.04 | 10 | 1017.1 |
| 20260906215535 | 52 | 139 | 3.0 | 5.0 | 0.00 | 0.04 | 0.04 | 10 | 1017.1 |
| 20260906215033 | 52 | 114 | 4.0 | 5.0 | 0.00 | 0.04 | 0.04 | 10 | 1016.8 |
| 20260906214532 | 52 | 122 | 2.0 | 3.0 | 0.00 | 0.04 | 0.04 | 10 | 1016.8 |
| 20260906214027 | 52 | 90 | 3.0 | 5.0 | 0.00 | 0.04 | 0.04 | 10 | 1016.8 |
| 20260906213526 | 52 | 117 | 3.0 | 3.0 | 0.00 | 0.04 | 0.04 | 10 | 1016.9 |
| 20260906213021 | 52 | 118 | 4.0 | 5.0 | 0.00 | 0.04 | 0.04 | 10 | 1016.9 |
| 20260906212515 | 52 | 97 | 3.0 | 6.0 | 0.00 | 0.04 | 0.04 | 10 | 1017.0 |
| 20260906212010 | 52 | 150 | 2.0 | 2.0 | 0.00 | 0.04 | 0.04 | 10 | 1017.1 |
| 20260906211504 | 52 | 70 | 4.0 | 5.0 | 0.00 | 0.04 | 0.04 | 10 | 1016.9 |
| 20260906210959 | 52 | 132 | 2.0 | 3.0 | 0.00 | 0.04 | 0.04 | 10 | 1017.1 |
| 20260906210449 | 51 | 144 | 1.0 | 1.0 | 0.00 | 0.04 | 0.04 | 10 | 1016.8 |
| 20260906205948 | 51 | 132 | 1.0 | 2.0 | 0.00 | 0.04 | 0.04 | 10 | 1016.9 |
| 20260906205444 | 51 | 100 | 1.0 | 2.0 | 0.00 | 0.04 | 0.04 | 10 | 1016.9 |
| 20260906204940 | 51 | 69 | 4.0 | 5.0 | 0.00 | 0.04 | 0.04 | 10 | 1017.1 |
| 20260906204439 | 51 | 112 | 2.0 | 2.0 | 0.00 | 0.04 | 0.04 | 10 | 1017.1 |
| 20260906203938 | 51 | 105 | 3.0 | 5.0 | 0.00 | 0.04 | 0.04 | 10 | 1017.0 |
| 20260906203434 | 51 | 110 | 2.0 | 2.0 | 0.00 | 0.04 | 0.04 | 10 | 1017.2 |
| 20260906202931 | 51 | 143 | 2.0 | 2.0 | 0.00 | 0.04 | 0.04 | 10 | 1017.0 |
| 20260906202430 | 50 | 66 | 3.0 | 3.0 | 0.00 | 0.04 | 0.04 | 10 | 1017.0 |
| 20260906201926 | 51 | 102 | 3.0 | 3.0 | 0.00 | 0.04 | 0.04 | 10 | 1017.0 |
| 20260906201420 | 50 | 117 | 2.0 | 3.0 | 0.00 | 0.04 | 0.04 | 10 | 1017.2 |
| 20260906200915 | 50 | 119 | 3.0 | 3.0 | 0.00 | 0.04 | 0.04 | 10 | 1017.3 |
| 20260906200412 | 50 | 147 | 1.0 | 2.0 | 0.00 | 0.04 | 0.04 | 10 | 1017.5 |
| 20260906195911 | 50 | 135 | 3.0 | 3.0 | 0.00 | 0.04 | 0.04 | 10 | 1017.2 |
| 20260906195408 | 50 | 154 | 1.0 | 1.0 | 0.00 | 0.04 | 0.04 | 10 | 1017.5 |
| 20260906194904 | 50 | 154 | 1.0 | 1.0 | 0.00 | 0.04 | 0.04 | 10 | 1017.5 |
| 20260906194359 | 49 | 131 | 3.0 | 3.0 | 0.00 | 0.04 | 0.04 | 10 | 1017.8 |
| 20260906193854 | 49 | 136 | 3.0 | 3.0 | 0.00 | 0.04 | 0.04 | 10 | 1017.7 |
| 20260906193349 | 50 | 147 | 1.0 | 1.0 | 0.00 | 0.04 | 0.04 | 10 | 1017.7 |
| 20260906192845 | 49 | 148 | 3.0 | 3.0 | 0.00 | 0.04 | 0.04 | 10 | 1017.6 |
| 20260906192339 | 49 | 135 | 3.0 | 5.0 | 0.07 | 0.04 | 0.04 | 10 | 1017.8 |
| 20260906191838 | 49 | 135 | 3.0 | 3.0 | 0.07 | 0.04 | 0.04 | 10 | 1017.7 |
| 20260906191333 | 49 | 114 | 3.0 | 3.0 | 0.00 | 0.03 | 0.03 | 10 | 1017.8 |
| 20260906190827 | 49 | 122 | 1.0 | 2.0 | 0.00 | 0.03 | 0.03 | 10 | 1017.9 |
| 20260906190326 | 49 | 162 | 2.0 | 2.0 | 0.00 | 0.03 | 0.03 | 10 | 1018.1 |
| 20260906185821 | 48 | 157 | 0.0 | 0.0 | 0.00 | 0.03 | 0.03 | 10 | 1017.8 |
| 20260906185320 | 49 | 165 | 1.0 | 1.0 | 0.00 | 0.03 | 0.03 | 10 | 1018.0 |
| 20260906184815 | 48 | 162 | 0.0 | 0.0 | 0.00 | 0.03 | 0.03 | 10 | 1017.9 |
| 20260906184310 | 48 | 155 | 1.0 | 1.0 | 0.00 | 0.03 | 0.03 | 10 | 1017.9 |
| 20260906183805 | 48 | 153 | 1.0 | 2.0 | 0.00 | 0.03 | 0.03 | 10 | 1018.2 |
| 20260906183302 | 48 | 153 | 0.0 | 1.0 | 0.00 | 0.03 | 0.03 | 10 | 1018.2 |
| 20260906182802 | 48 | 166 | 0.0 | 1.0 | 0.00 | 0.03 | 0.03 | 10 | 1018.0 |
| 20260906182257 | 48 | 150 | 2.0 | 2.0 | 0.00 | 0.03 | 0.03 | 10 | 1018.1 |
| 20260906181752 | 48 | 150 | 0.0 | 0.0 | 0.00 | 0.03 | 0.03 | 10 | 1018.2 |
| 20260906181248 | 48 | 152 | 1.0 | 1.0 | 0.00 | 0.03 | 0.03 | 10 | 1018.2 |
| 20260906180743 | 47 | 137 | 0.0 | 1.0 | 0.00 | 0.03 | 0.03 | 10 | 1018.1 |
| 20260906180238 | 47 | 107 | 0.0 | 1.0 | 0.07 | 0.03 | 0.03 | 10 | 1018.0 |
| 20260906175735 | 47 | 103 | 3.0 | 3.0 | 0.07 | 0.03 | 0.03 | 10 | 1018.2 |
| 20260906175231 | 47 | 137 | 1.0 | 2.0 | 0.00 | 0.02 | 0.02 | 10 | 1018.1 |
| 20260906174729 | 47 | 129 | 2.0 | 3.0 | 0.00 | 0.02 | 0.02 | 10 | 1018.1 |
| 20260906174224 | 48 | 125 | 0.0 | 2.0 | 0.00 | 0.02 | 0.02 | 10 | 1018.2 |
| 20260906173719 | 48 | 127 | 4.0 | 5.0 | 0.05 | 0.02 | 0.02 | 10 | 1018.2 |
| 20260906173215 | 48 | 128 | 2.0 | 3.0 | 0.00 | 0.01 | 0.01 | 10 | 1018.2 |
| 20260906172714 | 48 | 104 | 3.0 | 3.0 | 0.00 | 0.01 | 0.01 | 10 | 1018.6 |
| 20260906172209 | 48 | 97 | 3.0 | 5.0 | 0.00 | 0.01 | 0.01 | 10 | 1018.4 |
| 20260906171704 | 48 | 128 | 1.0 | 2.0 | 0.00 | 0.01 | 0.01 | 10 | 1018.1 |
| 20260906171200 | 48 | 129 | 2.0 | 3.0 | 0.00 | 0.01 | 0.01 | 10 | 1018.2 |
| 20260906170656 | 49 | 140 | 2.0 | 2.0 | 0.00 | 0.01 | 0.01 | 10 | 1018.5 |
| 20260906170156 | 48 | 170 | 2.0 | 2.0 | 0.00 | 0.01 | 0.01 | 10 | 1018.2 |
| 20260906165651 | 48 | 120 | 3.0 | 3.0 | 0.00 | 0.01 | 0.01 | 10 | 1018.0 |
| 20260906165147 | 48 | 154 | 2.0 | 3.0 | 0.00 | 0.01 | 0.01 | 10 | 1018.4 |
| 20260906164645 | 49 | 169 | 1.0 | 2.0 | 0.00 | 0.01 | 0.01 | 10 | 1018.4 |
| 20260906164141 | 48 | 169 | 0.0 | 0.0 | 0.00 | 0.01 | 0.01 | 10 | 1018.2 |
| 20260906163637 | 47 | 186 | 2.0 | 3.0 | 0.00 | 0.01 | 0.01 | 10 | 1018.5 |
| 20260906163133 | 47 | 168 | 0.0 | 1.0 | 0.00 | 0.01 | 0.01 | 10 | 1018.7 |
| 20260906162630 | 47 | 170 | 1.0 | 1.0 | 0.00 | 0.01 | 0.01 | 10 | 1018.7 |
| 20260906162130 | 46 | 173 | 1.0 | 1.0 | 0.00 | 0.01 | 0.01 | 10 | 1018.6 |
| 20260906161630 | 46 | 190 | 0.0 | 0.0 | 0.00 | 0.01 | 0.01 | 10 | 1018.7 |
| 20260906161128 | 45 | 174 | 0.0 | 0.0 | 0.00 | 0.01 | 0.01 | 10 | 1018.8 |
| 20260906160627 | 46 | 172 | 0.0 | 0.0 | 0.00 | 0.01 | 0.01 | 10 | 1018.7 |
| 20260906160127 | 45 | 171 | 0.0 | 0.0 | 0.00 | 0.01 | 0.01 | 10 | 1018.8 |
| 20260906155624 | 45 | 170 | 0.0 | 0.0 | 0.00 | 0.01 | 0.01 | 10 | 1018.7 |
| 20260906155120 | 45 | 176 | 0.0 | 0.0 | 0.00 | 0.01 | 0.01 | 10 | 1018.8 |
| 20260906154615 | 44 | 181 | 0.0 | 0.0 | 0.00 | 0.01 | 0.01 | 10 | 1018.6 |
| 20260906154115 | 44 | 180 | 0.0 | 0.0 | 0.00 | 0.01 | 0.01 | 10 | 1018.8 |
| 20260906153614 | 44 | 187 | 1.0 | 2.0 | 0.00 | 0.01 | 0.01 | 10 | 1018.6 |
| 20260906153108 | 44 | 206 | 2.0 | 2.0 | 0.00 | 0.01 | 0.01 | 10 | 1018.8 |
| 20260906152603 | 44 | 173 | 0.0 | 0.0 | 0.00 | 0.01 | 0.01 | 10 | 1019.0 |
| 20260906152057 | 44 | 179 | 0.0 | 0.0 | 0.00 | 0.01 | 0.01 | 10 | 1018.8 |
| 20260906151552 | 44 | 188 | 1.0 | 2.0 | 0.00 | 0.01 | 0.01 | 10 | 1018.7 |
| 20260906151048 | 44 | 181 | 0.0 | 0.0 | 0.00 | 0.01 | 0.01 | 10 | 1018.7 |
| 20260906150543 | 43 | 198 | 2.0 | 2.0 | 0.00 | 0.01 | 0.01 | 10 | 1018.8 |
| 20260906150038 | 43 | 175 | 0.0 | 0.0 | 0.00 | 0.01 | 0.01 | 10 | 1019.0 |
| 20260906145537 | 43 | 194 | 1.0 | 1.0 | 0.00 | 0.01 | 0.01 | 10 | 1019.0 |
| 20260906145032 | 43 | 199 | 2.0 | 2.0 | 0.00 | 0.01 | 0.01 | 10 | 1019.0 |
| 20260906144526 | 43 | 213 | 2.0 | 2.0 | 0.00 | 0.01 | 0.01 | 10 | 1018.9 |
| 20260906144022 | 43 | 194 | 0.0 | 0.0 | 0.00 | 0.01 | 0.01 | 10 | 1019.0 |
| 20260906143517 | 43 | 192 | 0.0 | 0.0 | 0.00 | 0.01 | 0.01 | 10 | 1019.3 |
| 20260906143013 | 43 | 218 | 1.0 | 2.0 | 0.00 | 0.01 | 0.01 | 10 | 1019.3 |
| 20260906142507 | 43 | 193 | 1.0 | 1.0 | 0.00 | 0.01 | 0.01 | 10 | 1018.9 |
| 20260906142003 | 43 | 176 | 0.0 | 1.0 | 0.00 | 0.01 | 0.01 | 10 | 1019.1 |
| 20260906141501 | 43 | 201 | 2.0 | 2.0 | 0.00 | 0.01 | 0.01 | 10 | 1019.3 |
| 20260906140957 | 43 | 190 | 1.0 | 2.0 | 0.00 | 0.01 | 0.01 | 10 | 1018.9 |
| 20260906140450 | 43 | 187 | 1.0 | 1.0 | 0.00 | 0.01 | 0.01 | 10 | 1019.4 |
| 20260906135949 | 43 | 176 | 1.0 | 1.0 | 0.00 | 0.01 | 0.01 | 10 | 1019.4 |
| 20260906135448 | 43 | 175 | 0.0 | 0.0 | 0.00 | 0.01 | 0.01 | 10 | 1019.4 |
| 20260906134943 | 43 | 178 | 0.0 | 0.0 | 0.00 | 0.01 | 0.01 | 10 | 1019.4 |
| 20260906134439 | 43 | 173 | 0.0 | 0.0 | 0.00 | 0.01 | 0.01 | 10 | 1019.4 |
| 20260906133939 | 43 | 173 | 0.0 | 0.0 | 0.00 | 0.01 | 0.01 | 10 | 1019.7 |
| 20260906133435 | 43 | 177 | 0.0 | 0.0 | 0.00 | 0.01 | 0.01 | 10 | 1019.5 |
| 20260906132930 | 43 | 201 | 2.0 | 3.0 | 0.00 | 0.01 | 0.01 | 10 | 1019.4 |
| 20260906132425 | 44 | 201 | 2.0 | 2.0 | 0.00 | 0.01 | 0.01 | 10 | 1019.1 |
| 20260906131921 | 44 | 190 | 0.0 | 0.0 | 0.00 | 0.01 | 0.01 | 10 | 1019.3 |
| 20260906131416 | 44 | 195 | 2.0 | 3.0 | 0.00 | 0.01 | 0.01 | 10 | 1019.7 |
| 20260906130912 | 44 | 203 | 3.0 | 5.0 | 0.00 | 0.01 | 0.01 | 10 | 1019.6 |
| 20260906130411 | 43 | 175 | 0.0 | 0.0 | 0.00 | 0.01 | 0.01 | 10 | 1019.6 |
| 20260906125911 | 43 | 188 | 0.0 | 0.0 | 0.00 | 0.01 | 0.01 | 10 | 1019.6 |
| 20260906125408 | 43 | 175 | 0.0 | 0.0 | 0.00 | 0.01 | 0.01 | 10 | 1019.4 |
| 20260906124903 | 43 | 173 | 0.0 | 0.0 | 0.00 | 0.01 | 0.01 | 10 | 1019.8 |
| 20260906124359 | 43 | 176 | 0.0 | 0.0 | 0.00 | 0.01 | 0.01 | 10 | 1019.8 |
| 20260906123858 | 43 | 174 | 0.0 | 0.0 | 0.00 | 0.01 | 0.01 | 10 | 1019.7 |
| 20260906123353 | 43 | 179 | 0.0 | 0.0 | 0.00 | 0.01 | 0.01 | 10 | 1019.8 |
| 20260906122853 | 43 | 185 | 0.0 | 0.0 | 0.00 | 0.01 | 0.01 | 10 | 1020.0 |
| 20260906122353 | 43 | 184 | 0.0 | 0.0 | 0.00 | 0.01 | 0.01 | 10 | 1019.9 |
| 20260906121850 | 43 | 180 | 0.0 | 0.0 | 0.00 | 0.01 | 0.01 | 10 | 1019.6 |
| 20260906121345 | 43 | 191 | 0.0 | 0.0 | 0.00 | 0.01 | 0.01 | 10 | 1019.6 |
| 20260906120841 | 43 | 196 | 0.0 | 1.0 | 0.00 | 0.01 | 0.01 | 10 | 1019.7 |
| 20260906120337 | 43 | 177 | 0.0 | 0.0 | 0.00 | 0.01 | 0.01 | 10 | 1019.9 |
| 20260906115833 | 43 | 176 | 0.0 | 0.0 | 0.00 | 0.01 | 0.01 | 10 | 1020.2 |
| 20260906115328 | 43 | 179 | 0.0 | 0.0 | 0.00 | 0.01 | 0.01 | 10 | 1020.0 |
| 20260906114827 | 43 | 200 | 2.0 | 3.0 | 0.00 | 0.01 | 0.01 | 10 | 1020.2 |
| 20260906114323 | 43 | 186 | 3.0 | 5.0 | 0.00 | 0.01 | 0.01 | 10 | 1019.9 |
| 20260906113818 | 44 | 197 | 2.0 | 3.0 | 0.00 | 0.01 | 0.01 | 10 | 1020.4 |
| 20260906113317 | 44 | 207 | 4.0 | 5.0 | 0.00 | 0.01 | 0.01 | 10 | 1020.4 |
| 20260906112813 | 44 | 176 | 3.0 | 5.0 | 0.00 | 0.01 | 0.01 | 10 | 1020.6 |
| 20260906112309 | 44 | 210 | 4.0 | 6.0 | 0.00 | 0.01 | 0.01 | 10 | 1020.4 |
| 20260906111809 | 44 | 191 | 4.0 | 5.0 | 0.00 | 0.01 | 0.01 | 10 | 1020.2 |
| 20260906111308 | 44 | 191 | 2.0 | 3.0 | 0.00 | 0.01 | 0.01 | 10 | 1020.3 |
| 20260906110803 | 44 | 188 | 1.0 | 2.0 | 0.00 | 0.01 | 0.01 | 10 | 1020.7 |
| 20260906110259 | 44 | 196 | 1.0 | 2.0 | 0.00 | 0.01 | 0.01 | 10 | 1020.4 |
| 20260906105758 | 44 | 178 | 0.0 | 0.0 | 0.00 | 0.01 | 0.01 | 10 | 1020.4 |
| 20260906105254 | 44 | 172 | 0.0 | 0.0 | 0.00 | 0.01 | 0.01 | 10 | 1020.6 |
| 20260906104749 | 44 | 194 | 1.0 | 2.0 | 0.00 | 0.01 | 0.01 | 10 | 1020.5 |
| 20260906104247 | 44 | 185 | 0.0 | 0.0 | 0.00 | 0.01 | 0.01 | 10 | 1020.5 |
| 20260906103746 | 44 | 171 | 0.0 | 0.0 | 0.00 | 0.01 | 0.01 | 10 | 1020.6 |
| 20260906103246 | 43 | 165 | 0.0 | 0.0 | 0.00 | 0.01 | 0.01 | 10 | 1020.7 |
| 20260906102742 | 43 | 170 | 0.0 | 0.0 | 0.00 | 0.01 | 0.01 | 10 | 1020.5 |
| 20260906102240 | 43 | 160 | 0.0 | 0.0 | 0.00 | 0.01 | 0.01 | 10 | 1020.0 |
| 20260906101736 | 43 | 152 | 0.0 | 0.0 | 0.00 | 0.01 | 0.01 | 10 | 1020.3 |
| 20260906101231 | 43 | 173 | 0.0 | 0.0 | 0.00 | 0.01 | 0.01 | 10 | 1020.3 |
| 20260906100726 | 42 | 172 | 0.0 | 0.0 | 0.00 | 0.01 | 0.01 | 10 | 1020.4 |
| 20260906100226 | 42 | 174 | 0.0 | 0.0 | 0.00 | 0.01 | 0.01 | 10 | 1020.4 |
| 20260906095721 | 42 | 181 | 0.0 | 0.0 | 0.00 | 0.01 | 0.01 | 10 | 1020.5 |
| 20260906095216 | 42 | 163 | 0.0 | 0.0 | 0.00 | 0.01 | 0.01 | 10 | 1020.7 |
| 20260906094714 | 42 | 176 | 0.0 | 0.0 | 0.00 | 0.01 | 0.01 | 10 | 1020.6 |
| 20260906094210 | 42 | 164 | 0.0 | 0.0 | 0.00 | 0.01 | 0.01 | 10 | 1020.8 |
| 20260906093707 | 42 | 166 | 0.0 | 0.0 | 0.00 | 0.01 | 0.01 | 10 | 1020.8 |
| 20260906093202 | 42 | 167 | 0.0 | 0.0 | 0.00 | 0.01 | 0.01 | 10 | 1020.8 |
| 20260906092657 | 43 | 171 | 0.0 | 0.0 | 0.00 | 0.01 | 0.01 | 10 | 1021.1 |
| 20260906092156 | 43 | 176 | 0.0 | 0.0 | 0.00 | 0.01 | 0.01 | 10 | 1020.9 |
| 20260906091653 | 42 | 158 | 0.0 | 0.0 | 0.00 | 0.01 | 0.01 | 10 | 1020.8 |
| 20260906091149 | 42 | 141 | 1.0 | 2.0 | 0.00 | 0.01 | 0.01 | 10 | 1020.9 |
| 20260906090645 | 42 | 137 | 2.0 | 2.0 | 0.00 | 0.01 | 0.01 | 10 | 1021.2 |
| 20260906090144 | 43 | 151 | 2.0 | 3.0 | 0.00 | 0.01 | 0.01 | 10 | 1021.3 |
| 20260906085643 | 43 | 131 | 3.0 | 3.0 | 0.00 | 0.01 | 0.01 | 10 | 1021.4 |
| 20260906085138 | 42 | 133 | 4.0 | 5.0 | 0.00 | 0.01 | 0.01 | 10 | 1021.2 |
| 20260906084638 | 43 | 147 | 1.0 | 2.0 | 0.00 | 0.01 | 0.01 | 10 | 1021.2 |
| 20260906084137 | 43 | 156 | 0.0 | 0.0 | 0.00 | 0.01 | 0.01 | 10 | 1021.5 |
| 20260906083632 | 44 | 165 | 0.0 | 0.0 | 0.00 | 0.01 | 0.01 | 10 | 1021.4 |
| 20260906083127 | 44 | 170 | 0.0 | 0.0 | 0.00 | 0.01 | 0.01 | 10 | 1021.4 |
| 20260906082623 | 44 | 163 | 0.0 | 0.0 | 0.00 | 0.01 | 0.01 | 10 | 1021.6 |
| 20260906082118 | 43 | 165 | 0.0 | 0.0 | 0.00 | 0.01 | 0.01 | 10 | 1021.6 |
| 20260906081614 | 43 | 162 | 0.0 | 0.0 | 0.07 | 0.01 | 0.01 | 10 | 1021.4 |
| 20260906081108 | 44 | 161 | 0.0 | 0.0 | 0.07 | 0.01 | 0.01 | 10 | 1021.3 |
| 20260906080606 | 44 | 146 | 0.0 | 0.0 | 0.00 | 0.00 | 0.00 | 10 | 1021.2 |
| 20260906075555 | 44 | 144 | 0.0 | 0.0 | 0.00 | 0.00 | 0.00 | 10 | 1021.4 |
| 20260906075050 | 45 | 155 | 0.0 | 0.0 | 0.00 | 0.00 | 0.00 | 10 | 1021.4 |
| 20260906074544 | 45 | 158 | 0.0 | 0.0 | 0.00 | 0.00 | 0.00 | 10 | 1021.5 |
| 20260906074043 | 45 | 159 | 0.0 | 0.0 | 0.00 | 0.00 | 0.00 | 10 | 1021.5 |
| 20260906073538 | 45 | 157 | 0.0 | 0.0 | 0.00 | 0.00 | 0.00 | 10 | 1021.5 |
| 20260906073029 | 45 | 153 | 0.0 | 0.0 | 0.00 | 0.00 | 0.00 | 10 | 1021.5 |
| 20260906072523 | 46 | 150 | 0.0 | 0.0 | 0.00 | 0.00 | 0.00 | 10 | 1021.6 |
| 20260906072020 | 46 | 161 | 0.0 | 0.0 | 0.00 | 0.00 | 0.00 | 10 | 1021.5 |
| 20260906071515 | 46 | 160 | 0.0 | 0.0 | 0.00 | 0.00 | 0.00 | 10 | 1021.5 |
| 20260906071010 | 46 | 159 | 0.0 | 0.0 | 0.00 | 0.00 | 0.00 | 10 | 1021.5 |
| 20260906070506 | 45 | 151 | 0.0 | 0.0 | 0.00 | 0.00 | 0.00 | 10 | 1021.8 |
| 20260906070002 | 45 | 158 | 0.0 | 0.0 | 0.00 | 0.00 | 0.00 | 10 | 1021.7 |
| 20260906065455 | 45 | 159 | 0.0 | 0.0 | 0.00 | 0.00 | 0.00 | 10 | 1021.6 |
| 20260906064951 | 45 | 162 | 0.0 | 0.0 | 0.00 | 0.00 | 0.00 | 10 | 1021.7 |
| 20260906064447 | 46 | 158 | 0.0 | 0.0 | 0.00 | 0.00 | 0.00 | 10 | 1021.6 |
| 20260906063942 | 46 | 162 | 0.0 | 0.0 | 0.00 | 0.00 | 0.00 | 10 | 1021.6 |
| 20260906063438 | 46 | 156 | 0.0 | 0.0 | 0.00 | 0.00 | 0.00 | 10 | 1021.6 |
| 20260906062938 | 46 | 157 | 0.0 | 0.0 | 0.00 | 0.00 | 0.00 | 10 | 1021.6 |
| 20260906062433 | 46 | 164 | 0.0 | 0.0 | 0.00 | 0.00 | 0.00 | 10 | 1021.5 |
| 20260906061928 | 46 | 182 | 0.0 | 0.0 | 0.00 | 0.00 | 0.00 | 10 | 1021.5 |
| 20260906061424 | 46 | 176 | 0.0 | 0.0 | 0.00 | 0.00 | 0.00 | 10 | 1021.5 |
| 20260906060918 | 46 | 183 | 0.0 | 0.0 | 0.00 | 0.00 | 0.00 | 10 | 1021.4 |
| 20260906060415 | 46 | 158 | 0.0 | 0.0 | 0.00 | 0.00 | 0.00 | 10 | 1021.8 |
| 20260906055911 | 46 | 158 | 0.0 | 0.0 | 0.00 | 0.17 | 0.17 | 10 | 1021.7 |
| 20260906055407 | 46 | 158 | 0.0 | 0.0 | 0.00 | 0.17 | 0.17 | 10 | 1022.0 |
| 20260906054902 | 46 | 158 | 0.0 | 0.0 | 0.00 | 0.17 | 0.17 | 10 | 1022.0 |
| 20260906054357 | 46 | 160 | 0.0 | 0.0 | 0.00 | 0.17 | 0.17 | 10 | 1022.0 |
| 20260906053853 | 46 | 158 | 0.0 | 0.0 | 0.00 | 0.17 | 0.17 | 10 | 1021.8 |
| 20260906053349 | 46 | 165 | 0.0 | 0.0 | 0.00 | 0.17 | 0.17 | 10 | 1022.0 |
| 20260906052844 | 46 | 169 | 0.0 | 0.0 | 0.00 | 0.17 | 0.17 | 10 | 1022.0 |
| 20260906052340 | 46 | 170 | 0.0 | 0.0 | 0.00 | 0.17 | 0.17 | 10 | 1022.1 |
| 20260906051837 | 46 | 171 | 0.0 | 0.0 | 0.00 | 0.17 | 0.17 | 10 | 1022.1 |
| 20260906051336 | 46 | 158 | 0.0 | 0.0 | 0.00 | 0.17 | 0.17 | 10 | 1022.1 |
| 20260906050832 | 46 | 160 | 0.0 | 0.0 | 0.00 | 0.17 | 0.17 | 10 | 1022.1 |
| 20260906050327 | 47 | 160 | 0.0 | 0.0 | 0.00 | 0.17 | 0.17 | 10 | 1022.4 |
| 20260906045826 | 47 | 158 | 0.0 | 0.0 | 0.00 | 0.17 | 0.17 | 10 | 1022.4 |
| 20260906045320 | 46 | 169 | 0.0 | 0.0 | 0.00 | 0.17 | 0.17 | 10 | 1022.5 |
| 20260906044817 | 46 | 171 | 0.0 | 0.0 | 0.00 | 0.17 | 0.17 | 10 | 1022.2 |
| 20260906044317 | 47 | 160 | 0.0 | 0.0 | 0.00 | 0.17 | 0.17 | 10 | 1022.2 |
| 20260906043813 | 46 | 160 | 0.0 | 0.0 | 0.00 | 0.17 | 0.17 | 10 | 1022.1 |
| 20260906043309 | 46 | 160 | 0.0 | 0.0 | 0.00 | 0.17 | 0.17 | 10 | 1022.1 |
| 20260906042803 | 46 | 160 | 0.0 | 0.0 | 0.00 | 0.17 | 0.17 | 10 | 1022.0 |
| 20260906042306 | 46 | 160 | 0.0 | 0.0 | 0.00 | 0.17 | 0.17 | 10 | 1022.0 |
| 20260906041758 | 46 | 159 | 0.0 | 0.0 | 0.00 | 0.17 | 0.17 | 10 | 1022.1 |
| 20260906041253 | 46 | 161 | 0.0 | 0.0 | 0.00 | 0.17 | 0.17 | 10 | 1021.7 |
| 20260906040748 | 47 | 160 | 0.0 | 0.0 | 0.00 | 0.17 | 0.17 | 10 | 1021.6 |
| 20260906040243 | 47 | 164 | 0.0 | 0.0 | 0.00 | 0.17 | 0.17 | 10 | 1021.6 |
| 20260906035738 | 47 | 164 | 0.0 | 0.0 | 0.00 | 0.17 | 0.17 | 10 | 1021.6 |
| 20260906035234 | 47 | 164 | 0.0 | 0.0 | 0.00 | 0.17 | 0.17 | 10 | 1021.4 |
| 20260906034734 | 46 | 164 | 0.0 | 0.0 | 0.00 | 0.17 | 0.17 | 10 | 1021.6 |
| 20260906034229 | 47 | 165 | 0.0 | 0.0 | 0.00 | 0.17 | 0.17 | 10 | 1021.6 |
| 20260906033725 | 47 | 165 | 0.0 | 0.0 | 0.00 | 0.17 | 0.17 | 10 | 1021.6 |
| 20260906033224 | 47 | 165 | 0.0 | 0.0 | 0.00 | 0.17 | 0.17 | 10 | 1021.1 |
| 20260906032721 | 47 | 166 | 0.0 | 0.0 | 0.00 | 0.17 | 0.17 | 10 | 1021.4 |
| 20260906032221 | 47 | 178 | 0.0 | 0.0 | 0.00 | 0.17 | 0.17 | 10 | 1021.6 |
| 20260906031716 | 47 | 166 | 0.0 | 0.0 | 0.00 | 0.17 | 0.17 | 10 | 1021.3 |
| 20260906031212 | 47 | 162 | 0.0 | 0.0 | 0.00 | 0.17 | 0.17 | 10 | 1021.3 |
| 20260906030711 | 47 | 162 | 0.0 | 0.0 | 0.00 | 0.17 | 0.17 | 10 | 1021.5 |
| 20260906030207 | 47 | 161 | 0.0 | 0.0 | 0.00 | 0.17 | 0.17 | 10 | 1021.3 |
| 20260906025706 | 47 | 161 | 0.0 | 0.0 | 0.00 | 0.17 | 0.17 | 10 | 1021.4 |
| 20260906025200 | 47 | 161 | 0.0 | 0.0 | 0.00 | 0.17 | 0.17 | 10 | 1021.2 |
| 20260906024654 | 47 | 161 | 0.0 | 0.0 | 0.00 | 0.17 | 0.17 | 10 | 1021.1 |
| 20260906024153 | 47 | 157 | 0.0 | 0.0 | 0.00 | 0.17 | 0.17 | 10 | 1020.9 |
| 20260906023650 | 47 | 148 | 1.0 | 1.0 | 0.00 | 0.17 | 0.17 | 10 | 1020.9 |
| 20260906023149 | 48 | 70 | 3.0 | 3.0 | 0.00 | 0.17 | 0.17 | 10 | 1021.4 |
| 20260906022644 | 48 | 139 | 0.0 | 1.0 | 0.00 | 0.17 | 0.17 | 10 | 1021.4 |
| 20260906022140 | 48 | 95 | 3.0 | 3.0 | 0.00 | 0.17 | 0.17 | 10 | 1021.3 |
| 20260906021636 | 48 | 133 | 0.0 | 1.0 | 0.00 | 0.17 | 0.17 | 10 | 1021.5 |
| 20260906021134 | 48 | 101 | 2.0 | 2.0 | 0.05 | 0.17 | 0.17 | 10 | 1021.2 |
| 20260906020629 | 48 | 114 | 2.0 | 2.0 | 0.05 | 0.17 | 0.17 | 10 | 1021.5 |
| 20260906020124 | 48 | 144 | 0.0 | 0.0 | 0.00 | 0.16 | 0.16 | 10 | 1021.4 |
| 20260906015618 | 48 | 143 | 0.0 | 1.0 | 0.00 | 0.16 | 0.16 | 10 | 1021.7 |
| 20260906015117 | 48 | 134 | 1.0 | 1.0 | 0.00 | 0.16 | 0.16 | 10 | 1021.4 |
| 20260906014612 | 48 | 143 | 2.0 | 2.0 | 0.00 | 0.16 | 0.16 | 10 | 1021.6 |
| 20260906014108 | 48 | 127 | 3.0 | 3.0 | 0.00 | 0.16 | 0.16 | 10 | 1021.3 |
| 20260906013603 | 48 | 116 | 3.0 | 3.0 | 0.00 | 0.16 | 0.16 | 10 | 1021.5 |
| 20260906013058 | 48 | 120 | 2.0 | 2.0 | 0.00 | 0.16 | 0.16 | 10 | 1021.1 |
| 20260906012553 | 48 | 163 | 1.0 | 2.0 | 0.00 | 0.16 | 0.16 | 10 | 1021.6 |
| 20260906012053 | 48 | 159 | 0.0 | 0.0 | 0.00 | 0.16 | 0.16 | 10 | 1021.3 |
| 20260906011549 | 48 | 149 | 1.0 | 2.0 | 0.00 | 0.16 | 0.16 | 10 | 1021.2 |
| 20260906011049 | 48 | 160 | 0.0 | 0.0 | 0.00 | 0.16 | 0.16 | 10 | 1021.1 |
| 20260906010544 | 48 | 126 | 2.0 | 3.0 | 0.00 | 0.16 | 0.16 | 10 | 1021.3 |
| 20260906010041 | 48 | 145 | 0.0 | 0.0 | 0.00 | 0.16 | 0.16 | 10 | 1021.3 |
| 20260906005540 | 48 | 139 | 1.0 | 2.0 | 0.00 | 0.16 | 0.16 | 10 | 1021.1 |
| 20260906005039 | 48 | 97 | 3.0 | 3.0 | 0.00 | 0.16 | 0.16 | 10 | 1020.9 |
| 20260906004538 | 49 | 154 | 0.0 | 1.0 | 0.00 | 0.16 | 0.16 | 10 | 1021.1 |
| 20260906004033 | 48 | 96 | 2.0 | 2.0 | 0.00 | 0.16 | 0.16 | 10 | 1021.2 |
| 20260906003528 | 48 | 129 | 3.0 | 3.0 | 0.00 | 0.16 | 0.16 | 10 | 1020.9 |
| 20260906003025 | 48 | 99 | 4.0 | 5.0 | 0.00 | 0.16 | 0.16 | 10 | 1020.9 |
| 20260906002519 | 48 | 105 | 5.0 | 6.0 | 0.00 | 0.16 | 0.16 | 10 | 1021.2 |
| 20260906002014 | 48 | 118 | 3.0 | 3.0 | 0.00 | 0.16 | 0.16 | 10 | 1020.9 |
| 20260906001510 | 48 | 109 | 3.0 | 3.0 | 0.00 | 0.16 | 0.16 | 10 | 1021.2 |
| 20260906001004 | 48 | 99 | 3.0 | 3.0 | 0.00 | 0.16 | 0.16 | 10 | 1020.8 |
| 20260906000500 | 49 | 127 | 3.0 | 5.0 | 0.00 | 0.16 | 0.16 | 10 | 1021.1 |
| 20260905235959 | 49 | 93 | 5.0 | 6.0 | 0.00 | 0.16 | 0.16 | 10 | 1020.9 |
| 20260905235454 | 49 | 107 | 3.0 | 3.0 | 0.00 | 0.16 | 0.16 | 10 | 1020.9 |
| 20260905234949 | 49 | 69 | 5.0 | 6.0 | 0.07 | 0.16 | 0.16 | 10 | 1020.9 |
| 20260905234444 | 49 | 87 | 3.0 | 5.0 | 0.07 | 0.16 | 0.16 | 10 | 1020.9 |
| 20260905233938 | 49 | 66 | 6.0 | 7.0 | 0.00 | 0.15 | 0.15 | 10 | 1021.1 |